Aviation Digital Data Service (ADDS)

Output produced by METARs form (1326 UTC 23 January 2019)
found at http://www.aviationweather.gov/metar/data/
 
METAR text: MNMG 231300Z 10006KT 9999 FEW021 24/20 Q1012 A2990 NOSIG
Conditions at: MNMG (MANAGUA/AUGUSTO , NI) observed 1300 UTC 23 January 2019
Temperature: 24.0°C (75°F)
Dewpoint: 20.0°C (68°F) [RH = 78%]
Pressure (altimeter): 29.88 inches Hg (1012.0 mb)
Winds: from the E (100 degrees) at 7 MPH (6 knots; 3.1 m/s)
Visibility: 6 or more miles (10+ km)
Ceiling: at least 12,000 feet AGL
Clouds: few clouds at 2100 feet AGL
Weather: no significant weather observed at this time

METAR text: MNMG 231200Z 16004KT 9999 FEW021 22/17 Q1012 A2989 NOSIG
Conditions at: MNMG (MANAGUA/AUGUSTO , NI) observed 1200 UTC 23 January 2019
Temperature: 22.0°C (72°F)
Dewpoint: 17.0°C (63°F) [RH = 73%]
Pressure (altimeter): 29.88 inches Hg (1012.0 mb)
Winds: from the SSE (160 degrees) at 5 MPH (4 knots; 2.1 m/s)
Visibility: 6 or more miles (10+ km)
Ceiling: at least 12,000 feet AGL
Clouds: few clouds at 2100 feet AGL
Weather: no significant weather observed at this time

METAR text: MNMG 231100Z 08008KT 9999 FEW021 23/19 Q1011 A2987 NOSIG
Conditions at: MNMG (MANAGUA/AUGUSTO , NI) observed 1100 UTC 23 January 2019
Temperature: 23.0°C (73°F)
Dewpoint: 19.0°C (66°F) [RH = 78%]
Pressure (altimeter): 29.85 inches Hg (1011.0 mb)
Winds: from the E (80 degrees) at 9 MPH (8 knots; 4.1 m/s)
Visibility: 6 or more miles (10+ km)
Ceiling: at least 12,000 feet AGL
Clouds: few clouds at 2100 feet AGL
Weather: no significant weather observed at this time

METAR text: MNMG 231000Z 09008KT 9999 FEW021 24/20 Q1011 A2986 NOSIG
Conditions at: MNMG (MANAGUA/AUGUSTO , NI) observed 1000 UTC 23 January 2019
Temperature: 24.0°C (75°F)
Dewpoint: 20.0°C (68°F) [RH = 78%]
Pressure (altimeter): 29.85 inches Hg (1011.0 mb)
Winds: from the E (90 degrees) at 9 MPH (8 knots; 4.1 m/s)
Visibility: 6 or more miles (10+ km)
Ceiling: at least 12,000 feet AGL
Clouds: few clouds at 2100 feet AGL
Weather: no significant weather observed at this time

METAR text: MNMG 230900Z 09014KT 9999 FEW021 24/19 Q1011 A2987 NOSIG
Conditions at: MNMG (MANAGUA/AUGUSTO , NI) observed 0900 UTC 23 January 2019
Temperature: 24.0°C (75°F)
Dewpoint: 19.0°C (66°F) [RH = 74%]
Pressure (altimeter): 29.85 inches Hg (1011.0 mb)
Winds: from the E (90 degrees) at 16 MPH (14 knots; 7.2 m/s)
Visibility: 6 or more miles (10+ km)
Ceiling: at least 12,000 feet AGL
Clouds: few clouds at 2100 feet AGL
Weather: no significant weather observed at this time

METAR text: MNMG 230800Z 10006KT 9999 FEW021 24/19 Q1011 A2987 NOSIG
Conditions at: MNMG (MANAGUA/AUGUSTO , NI) observed 0800 UTC 23 January 2019
Temperature: 24.0°C (75°F)
Dewpoint: 19.0°C (66°F) [RH = 74%]
Pressure (altimeter): 29.85 inches Hg (1011.0 mb)
Winds: from the E (100 degrees) at 7 MPH (6 knots; 3.1 m/s)
Visibility: 6 or more miles (10+ km)
Ceiling: at least 12,000 feet AGL
Clouds: few clouds at 2100 feet AGL
Weather: no significant weather observed at this time

METAR text: MNMG 230700Z 10012KT 9999 FEW021 25/20 Q1012 A2989 NOSIG
Conditions at: MNMG (MANAGUA/AUGUSTO , NI) observed 0700 UTC 23 January 2019
Temperature: 25.0°C (77°F)
Dewpoint: 20.0°C (68°F) [RH = 74%]
Pressure (altimeter): 29.88 inches Hg (1012.0 mb)
Winds: from the E (100 degrees) at 14 MPH (12 knots; 6.2 m/s)
Visibility: 6 or more miles (10+ km)
Ceiling: at least 12,000 feet AGL
Clouds: few clouds at 2100 feet AGL
Weather: no significant weather observed at this time

METAR text: MNMG 230600Z 11010KT 9999 SCT021 25/19 Q1012 A2990 NOSIG
Conditions at: MNMG (MANAGUA/AUGUSTO , NI) observed 0600 UTC 23 January 2019
Temperature: 25.0°C (77°F)
Dewpoint: 19.0°C (66°F) [RH = 69%]
Pressure (altimeter): 29.88 inches Hg (1012.0 mb)
Winds: from the ESE (110 degrees) at 12 MPH (10 knots; 5.1 m/s)
Visibility: 6 or more miles (10+ km)
Ceiling: at least 12,000 feet AGL
Clouds: scattered clouds at 2100 feet AGL
Weather: no significant weather observed at this time

METAR text: MNMG 230500Z 11014KT 9999 FEW021 25/16 Q1012 A2991 NOSIG
Conditions at: MNMG (MANAGUA/AUGUSTO , NI) observed 0500 UTC 23 January 2019
Temperature: 25.0°C (77°F)
Dewpoint: 16.0°C (61°F) [RH = 57%]
Pressure (altimeter): 29.88 inches Hg (1012.0 mb)
Winds: from the ESE (110 degrees) at 16 MPH (14 knots; 7.2 m/s)
Visibility: 6 or more miles (10+ km)
Ceiling: at least 12,000 feet AGL
Clouds: few clouds at 2100 feet AGL
Weather: no significant weather observed at this time

METAR text: MNMG 230400Z 11012KT 9999 FEW021 25/16 Q1013 A2994 NOSIG
Conditions at: MNMG (MANAGUA/AUGUSTO , NI) observed 0400 UTC 23 January 2019
Temperature: 25.0°C (77°F)
Dewpoint: 16.0°C (61°F) [RH = 57%]
Pressure (altimeter): 29.91 inches Hg (1013.0 mb)
Winds: from the ESE (110 degrees) at 14 MPH (12 knots; 6.2 m/s)
Visibility: 6 or more miles (10+ km)
Ceiling: at least 12,000 feet AGL
Clouds: few clouds at 2100 feet AGL
Weather: no significant weather observed at this time

METAR text: MNMG 230300Z 10012KT 9999 FEW021 26/16 Q1013 A2993 NOSIG
Conditions at: MNMG (MANAGUA/AUGUSTO , NI) observed 0300 UTC 23 January 2019
Temperature: 26.0°C (79°F)
Dewpoint: 16.0°C (61°F) [RH = 54%]
Pressure (altimeter): 29.91 inches Hg (1013.0 mb)
Winds: from the E (100 degrees) at 14 MPH (12 knots; 6.2 m/s)
Visibility: 6 or more miles (10+ km)
Ceiling: at least 12,000 feet AGL
Clouds: few clouds at 2100 feet AGL
Weather: no significant weather observed at this time

METAR text: MNMG 230200Z 10014KT 9999 FEW024 27/16 Q1012 A2989 NOSIG
Conditions at: MNMG (MANAGUA/AUGUSTO , NI) observed 0200 UTC 23 January 2019
Temperature: 27.0°C (81°F)
Dewpoint: 16.0°C (61°F) [RH = 51%]
Pressure (altimeter): 29.88 inches Hg (1012.0 mb)
Winds: from the E (100 degrees) at 16 MPH (14 knots; 7.2 m/s)
Visibility: 6 or more miles (10+ km)
Ceiling: at least 12,000 feet AGL
Clouds: few clouds at 2400 feet AGL
Weather: no significant weather observed at this time

METAR text: MNMG 230100Z 11016KT 9999 FEW024 28/16 Q1011 A2987 NOSIG
Conditions at: MNMG (MANAGUA/AUGUSTO , NI) observed 0100 UTC 23 January 2019
Temperature: 28.0°C (82°F)
Dewpoint: 16.0°C (61°F) [RH = 48%]
Pressure (altimeter): 29.85 inches Hg (1011.0 mb)
Winds: from the ESE (110 degrees) at 18 MPH (16 knots; 8.2 m/s)
Visibility: 6 or more miles (10+ km)
Ceiling: at least 12,000 feet AGL
Clouds: few clouds at 2400 feet AGL
Weather: no significant weather observed at this time

METAR text: MNMG 230000Z 11016KT 9999 FEW029 29/17 Q1010 A2985 NOSIG
Conditions at: MNMG (MANAGUA/AUGUSTO , NI) observed 0000 UTC 23 January 2019
Temperature: 29.0°C (84°F)
Dewpoint: 17.0°C (63°F) [RH = 48%]
Pressure (altimeter): 29.82 inches Hg (1010.0 mb)
Winds: from the ESE (110 degrees) at 18 MPH (16 knots; 8.2 m/s)
Visibility: 6 or more miles (10+ km)
Ceiling: at least 12,000 feet AGL
Clouds: few clouds at 2900 feet AGL
Weather: no significant weather observed at this time

METAR text: MNMG 222300Z 10018KT 9999 FEW029 31/19 Q1010 A2983 NOSIG
Conditions at: MNMG (MANAGUA/AUGUSTO , NI) observed 2300 UTC 22 January 2019
Temperature: 31.0°C (88°F)
Dewpoint: 19.0°C (66°F) [RH = 49%]
Pressure (altimeter): 29.82 inches Hg (1010.0 mb)
Winds: from the E (100 degrees) at 21 MPH (18 knots; 9.3 m/s)
Visibility: 6 or more miles (10+ km)
Ceiling: at least 12,000 feet AGL
Clouds: few clouds at 2900 feet AGL
Weather: no significant weather observed at this time

METAR text: MNMG 222200Z 09020KT 9999 FEW029 32/18 Q1009 A2981 NOSIG
Conditions at: MNMG (MANAGUA/AUGUSTO , NI) observed 2200 UTC 22 January 2019
Temperature: 32.0°C (90°F)
Dewpoint: 18.0°C (64°F) [RH = 43%]
Pressure (altimeter): 29.79 inches Hg (1009.0 mb)
Winds: from the E (90 degrees) at 23 MPH (20 knots; 10.3 m/s)
Visibility: 6 or more miles (10+ km)
Ceiling: at least 12,000 feet AGL
Clouds: few clouds at 2900 feet AGL
Weather: no significant weather observed at this time

METAR text: MNMG 222100Z 09022KT 9999 FEW030 32/17 Q1009 A2981 NOSIG
Conditions at: MNMG (MANAGUA/AUGUSTO , NI) observed 2100 UTC 22 January 2019
Temperature: 32.0°C (90°F)
Dewpoint: 17.0°C (63°F) [RH = 41%]
Pressure (altimeter): 29.79 inches Hg (1009.0 mb)
Winds: from the E (90 degrees) at 25 MPH (22 knots; 11.3 m/s)
Visibility: 6 or more miles (10+ km)
Ceiling: at least 12,000 feet AGL
Clouds: few clouds at 3000 feet AGL
Weather: no significant weather observed at this time

METAR text: MNMG 222000Z 10016KT 9999 SCT030 33/18 Q1010 A2984 NOSIG
Conditions at: MNMG (MANAGUA/AUGUSTO , NI) observed 2000 UTC 22 January 2019
Temperature: 33.0°C (91°F)
Dewpoint: 18.0°C (64°F) [RH = 41%]
Pressure (altimeter): 29.82 inches Hg (1010.0 mb)
Winds: from the E (100 degrees) at 18 MPH (16 knots; 8.2 m/s)
Visibility: 6 or more miles (10+ km)
Ceiling: at least 12,000 feet AGL
Clouds: scattered clouds at 3000 feet AGL
Weather: no significant weather observed at this time

METAR text: MNMG 221900Z 09022KT 9999 FEW030 31/19 Q1011 A2988 NOSIG
Conditions at: MNMG (MANAGUA/AUGUSTO , NI) observed 1900 UTC 22 January 2019
Temperature: 31.0°C (88°F)
Dewpoint: 19.0°C (66°F) [RH = 49%]
Pressure (altimeter): 29.85 inches Hg (1011.0 mb)
Winds: from the E (90 degrees) at 25 MPH (22 knots; 11.3 m/s)
Visibility: 6 or more miles (10+ km)
Ceiling: at least 12,000 feet AGL
Clouds: few clouds at 3000 feet AGL
Weather: no significant weather observed at this time

METAR text: MNMG 221800Z 10018KT 9999 FEW028 30/19 Q1013 A2992 NOSIG
Conditions at: MNMG (MANAGUA/AUGUSTO , NI) observed 1800 UTC 22 January 2019
Temperature: 30.0°C (86°F)
Dewpoint: 19.0°C (66°F) [RH = 52%]
Pressure (altimeter): 29.91 inches Hg (1013.0 mb)
Winds: from the E (100 degrees) at 21 MPH (18 knots; 9.3 m/s)
Visibility: 6 or more miles (10+ km)
Ceiling: at least 12,000 feet AGL
Clouds: few clouds at 2800 feet AGL
Weather: no significant weather observed at this time

METAR text: MNMG 221700Z 10022KT 9000 VCRA BKN028 29/19 Q1014 A2995 RA SE S NOSIG
Conditions at: MNMG (MANAGUA/AUGUSTO , NI) observed 1700 UTC 22 January 2019
Temperature: 29.0°C (84°F)
Dewpoint: 19.0°C (66°F) [RH = 55%]
Pressure (altimeter): 29.94 inches Hg (1014.0 mb)
Winds: from the E (100 degrees) at 25 MPH (22 knots; 11.3 m/s)
Visibility: 6 miles ( 9 km)
Ceiling: 2800 feet AGL
Clouds: broken clouds at 2800 feet AGL
Weather: VCRA RA  (unknown weather, moderate rain)

METAR text: MNMG 221600Z 09024KT 9000 FEW025 29/18 Q1014 A2996 DU NOSIG
Conditions at: MNMG (MANAGUA/AUGUSTO , NI) observed 1600 UTC 22 January 2019
Temperature: 29.0°C (84°F)
Dewpoint: 18.0°C (64°F) [RH = 52%]
Pressure (altimeter): 29.94 inches Hg (1014.0 mb)
Winds: from the E (90 degrees) at 28 MPH (24 knots; 12.3 m/s)
Visibility: 6 miles ( 9 km)
Ceiling: at least 12,000 feet AGL
Clouds: few clouds at 2500 feet AGL
Weather: DU  (widespread dust)

METAR text: MNMG 221500Z 09020KT 9999 FEW023 28/19 Q1014 A2995 NOSIG
Conditions at: MNMG (MANAGUA/AUGUSTO , NI) observed 1500 UTC 22 January 2019
Temperature: 28.0°C (82°F)
Dewpoint: 19.0°C (66°F) [RH = 58%]
Pressure (altimeter): 29.94 inches Hg (1014.0 mb)
Winds: from the E (90 degrees) at 23 MPH (20 knots; 10.3 m/s)
Visibility: 6 or more miles (10+ km)
Ceiling: at least 12,000 feet AGL
Clouds: few clouds at 2300 feet AGL
Weather: no significant weather observed at this time

METAR text: MNMG 221400Z 09018KT 9999 FEW022 26/19 Q1014 A2995 NOSIG
Conditions at: MNMG (MANAGUA/AUGUSTO , NI) observed 1400 UTC 22 January 2019
Temperature: 26.0°C (79°F)
Dewpoint: 19.0°C (66°F) [RH = 65%]
Pressure (altimeter): 29.94 inches Hg (1014.0 mb)
Winds: from the E (90 degrees) at 21 MPH (18 knots; 9.3 m/s)
Visibility: 6 or more miles (10+ km)
Ceiling: at least 12,000 feet AGL
Clouds: few clouds at 2200 feet AGL
Weather: no significant weather observed at this time

METAR text: MNMG 221300Z 09014KT 9999 FEW020 25/19 Q1013 A2994 NOSIG
Conditions at: MNMG (MANAGUA/AUGUSTO , NI) observed 1300 UTC 22 January 2019
Temperature: 25.0°C (77°F)
Dewpoint: 19.0°C (66°F) [RH = 69%]
Pressure (altimeter): 29.91 inches Hg (1013.0 mb)
Winds: from the E (90 degrees) at 16 MPH (14 knots; 7.2 m/s)
Visibility: 6 or more miles (10+ km)
Ceiling: at least 12,000 feet AGL
Clouds: few clouds at 2000 feet AGL
Weather: no significant weather observed at this time

METAR text: MNMG 221200Z 10014KT 9999 FEW020 24/20 Q1012 A2991 1AC070 NOSIG
Conditions at: MNMG (MANAGUA/AUGUSTO , NI) observed 1200 UTC 22 January 2019
Temperature: 24.0°C (75°F)
Dewpoint: 20.0°C (68°F) [RH = 78%]
Pressure (altimeter): 29.88 inches Hg (1012.0 mb)
Winds: from the E (100 degrees) at 16 MPH (14 knots; 7.2 m/s)
Visibility: 6 or more miles (10+ km)
Ceiling: at least 12,000 feet AGL
Clouds: few clouds at 2000 feet AGL
Weather: no significant weather observed at this time

METAR text: MNMG 221100Z 09012KT 9999 SCT020 24/19 Q1012 A2989 NOSIG
Conditions at: MNMG (MANAGUA/AUGUSTO , NI) observed 1100 UTC 22 January 2019
Temperature: 24.0°C (75°F)
Dewpoint: 19.0°C (66°F) [RH = 74%]
Pressure (altimeter): 29.88 inches Hg (1012.0 mb)
Winds: from the E (90 degrees) at 14 MPH (12 knots; 6.2 m/s)
Visibility: 6 or more miles (10+ km)
Ceiling: at least 12,000 feet AGL
Clouds: scattered clouds at 2000 feet AGL
Weather: no significant weather observed at this time

METAR text: MNMG 221000Z 04004KT 9999 FEW020 23/19 Q1012 A2989 NOSIG
Conditions at: MNMG (MANAGUA/AUGUSTO , NI) observed 1000 UTC 22 January 2019
Temperature: 23.0°C (73°F)
Dewpoint: 19.0°C (66°F) [RH = 78%]
Pressure (altimeter): 29.88 inches Hg (1012.0 mb)
Winds: from the NE (40 degrees) at 5 MPH (4 knots; 2.1 m/s)
Visibility: 6 or more miles (10+ km)
Ceiling: at least 12,000 feet AGL
Clouds: few clouds at 2000 feet AGL
Weather: no significant weather observed at this time

METAR text: MNMG 220900Z 07006KT 9999 FEW020 24/19 Q1012 A2990 NOSIG
Conditions at: MNMG (MANAGUA/AUGUSTO , NI) observed 0900 UTC 22 January 2019
Temperature: 24.0°C (75°F)
Dewpoint: 19.0°C (66°F) [RH = 74%]
Pressure (altimeter): 29.88 inches Hg (1012.0 mb)
Winds: from the ENE (70 degrees) at 7 MPH (6 knots; 3.1 m/s)
Visibility: 6 or more miles (10+ km)
Ceiling: at least 12,000 feet AGL
Clouds: few clouds at 2000 feet AGL
Weather: no significant weather observed at this time

METAR text: MNMG 220800Z 09006KT 9999 FEW020 23/20 Q1012 A2990 NOSIG
Conditions at: MNMG (MANAGUA/AUGUSTO , NI) observed 0800 UTC 22 January 2019
Temperature: 23.0°C (73°F)
Dewpoint: 20.0°C (68°F) [RH = 83%]
Pressure (altimeter): 29.88 inches Hg (1012.0 mb)
Winds: from the E (90 degrees) at 7 MPH (6 knots; 3.1 m/s)
Visibility: 6 or more miles (10+ km)
Ceiling: at least 12,000 feet AGL
Clouds: few clouds at 2000 feet AGL
Weather: no significant weather observed at this time

METAR text: MNMG 220700Z 11006KT 9999 FEW022 23/20 Q1013 A2993 NOSIG
Conditions at: MNMG (MANAGUA/AUGUSTO , NI) observed 0700 UTC 22 January 2019
Temperature: 23.0°C (73°F)
Dewpoint: 20.0°C (68°F) [RH = 83%]
Pressure (altimeter): 29.91 inches Hg (1013.0 mb)
Winds: from the ESE (110 degrees) at 7 MPH (6 knots; 3.1 m/s)
Visibility: 6 or more miles (10+ km)
Ceiling: at least 12,000 feet AGL
Clouds: few clouds at 2200 feet AGL
Weather: no significant weather observed at this time

METAR text: MNMG 220600Z 08006KT 9999 FEW022 25/20 Q1013 A2994 NOSIG
Conditions at: MNMG (MANAGUA/AUGUSTO , NI) observed 0600 UTC 22 January 2019
Temperature: 25.0°C (77°F)
Dewpoint: 20.0°C (68°F) [RH = 74%]
Pressure (altimeter): 29.91 inches Hg (1013.0 mb)
Winds: from the E (80 degrees) at 7 MPH (6 knots; 3.1 m/s)
Visibility: 6 or more miles (10+ km)
Ceiling: at least 12,000 feet AGL
Clouds: few clouds at 2200 feet AGL
Weather: no significant weather observed at this time

METAR text: MNMG 220500Z 09010KT 9999 FEW022 25/20 Q1014 A2995 NOSIG
Conditions at: MNMG (MANAGUA/AUGUSTO , NI) observed 0500 UTC 22 January 2019
Temperature: 25.0°C (77°F)
Dewpoint: 20.0°C (68°F) [RH = 74%]
Pressure (altimeter): 29.94 inches Hg (1014.0 mb)
Winds: from the E (90 degrees) at 12 MPH (10 knots; 5.1 m/s)
Visibility: 6 or more miles (10+ km)
Ceiling: at least 12,000 feet AGL
Clouds: few clouds at 2200 feet AGL
Weather: no significant weather observed at this time

METAR text: MNMG 220400Z 08010KT 9999 FEW022 25/20 Q1014 A2995 NOSIG
Conditions at: MNMG (MANAGUA/AUGUSTO , NI) observed 0400 UTC 22 January 2019
Temperature: 25.0°C (77°F)
Dewpoint: 20.0°C (68°F) [RH = 74%]
Pressure (altimeter): 29.94 inches Hg (1014.0 mb)
Winds: from the E (80 degrees) at 12 MPH (10 knots; 5.1 m/s)
Visibility: 6 or more miles (10+ km)
Ceiling: at least 12,000 feet AGL
Clouds: few clouds at 2200 feet AGL
Weather: no significant weather observed at this time

METAR text: MNMG 220300Z 10014KT 9999 FEW022 26/20 Q1013 A2994 NOSIG
Conditions at: MNMG (MANAGUA/AUGUSTO , NI) observed 0300 UTC 22 January 2019
Temperature: 26.0°C (79°F)
Dewpoint: 20.0°C (68°F) [RH = 70%]
Pressure (altimeter): 29.91 inches Hg (1013.0 mb)
Winds: from the E (100 degrees) at 16 MPH (14 knots; 7.2 m/s)
Visibility: 6 or more miles (10+ km)
Ceiling: at least 12,000 feet AGL
Clouds: few clouds at 2200 feet AGL
Weather: no significant weather observed at this time

METAR text: MNMG 220200Z 09014KT 9999 FEW024 27/20 Q1013 A2992 NOSIG
Conditions at: MNMG (MANAGUA/AUGUSTO , NI) observed 0200 UTC 22 January 2019
Temperature: 27.0°C (81°F)
Dewpoint: 20.0°C (68°F) [RH = 66%]
Pressure (altimeter): 29.91 inches Hg (1013.0 mb)
Winds: from the E (90 degrees) at 16 MPH (14 knots; 7.2 m/s)
Visibility: 6 or more miles (10+ km)
Ceiling: at least 12,000 feet AGL
Clouds: few clouds at 2400 feet AGL
Weather: no significant weather observed at this time

Forecast for: MNMG (MANAGUA/AUGUSTO , NI)
Text: MNMG 231100Z 2312/2412 08012KT 9999 FEW021
Forecast period: 1200 to 1800 UTC 23 January 2019
Forecast type: FROM: standard forecast or significant change
Winds: from the E (80 degrees) at 14 MPH (12 knots; 6.2 m/s)
Visibility: 6 or more miles 10+ km)
Ceiling: at least 12,000 feet AGL
Clouds: few clouds at 2100 feet AGL
Weather: no significant weather forecast for this period
Text: TEMPO 2313/2316 09016G20KT FEW020
Forecast period: 1300 to 1600 UTC 23 January 2019
Forecast type: TEMPORARY: The following changes expected for less than half the time period
Winds: from the E (90 degrees) at 18 MPH (16 knots; 8.2 m/s)
gusting to 23 MPH (20 knots; 10.3 m/s)
Visibility: missing
Ceiling: at least 12,000 feet AGL
Clouds: few clouds at 2000 feet AGL
Weather: no significant weather forecast for this period
Text: BECMG 2318/2323 09018G28KT
Forecast period: 1800 UTC 23 January 2019 to 1200 UTC 24 January 2019
Forecast type: BECOMING: Conditions expected to become as follows by 2300 UTC 23 January 2019
Winds: from the E (90 degrees) at 21 MPH (18 knots; 9.3 m/s)
gusting to 32 MPH (28 knots; 14.4 m/s)
Visibility: 6 or more miles 10+ km)
Ceiling: at least 12,000 feet AGL
Clouds: few clouds at 2100 feet AGL
Weather: no significant weather forecast for this period